Aviation Digital Data Service (ADDS)

Output produced by METARs form (0022 UTC 30 May 2020)
found at http://www.aviationweather.gov/metar/data/
 
LFLC 300000Z AUTO VRB02KT CAVOK 10/05 Q1018 NOSIG
TAF LFLC 292000Z 2921/3021 VRB02KT CAVOK 
     BECMG 3006/3010 03009KT